Time;durP1;ratioP1;P1;durP2;ratioP2;P2;SDS_P1;SDS_P2;PMS_P1;PMS_P2;Temp;Humidity;BMP_temperature;BMP_pressure;BME280_temperature;BME280_humidity;BME280_pressure;Samples;Min_cycle;Max_cycle;Signal;HPM_P1;HPM_P2
2021/11/03 00:02:58;;;;;;;29.12;16.07;;;;;;;8.12;100.00;98016.35;4275080;82;28462;-84
2021/11/03 00:09:04;;;;;;;28.45;16.17;;;;;;;8.06;100.00;98021.34;4268515;82;28493;-84
2021/11/03 00:15:06;;;;;;;30.37;17.35;;;;;;;7.99;100.00;98016.66;4279895;83;28491;-84
2021/11/03 00:21:08;;;;;;;31.68;17.75;;;;;;;7.99;100.00;98024.17;4271805;81;28558;-83
2021/11/03 00:27:10;;;;;;;28.90;16.27;;;;;;;7.87;100.00;98023.41;4169211;84;28484;-84
2021/11/03 00:33:12;;;;;;;26.93;15.15;;;;;;;7.80;100.00;98029.70;4270407;82;28568;-84
2021/11/03 00:39:14;;;;;;;28.73;16.05;;;;;;;7.75;100.00;98046.98;4243449;82;28456;-83
2021/11/03 00:45:15;;;;;;;28.38;16.17;;;;;;;7.74;100.00;98056.06;4269474;82;28522;-83
2021/11/03 00:51:17;;;;;;;31.23;17.57;;;;;;;7.68;100.00;98064.50;4264606;82;28549;-84
2021/11/03 00:57:18;;;;;;;30.37;16.87;;;;;;;7.65;100.00;98068.17;4285210;82;28515;-83
2021/11/03 01:03:20;;;;;;;30.32;16.12;;;;;;;7.57;100.00;98069.36;4256758;83;28441;-83
2021/11/03 01:09:21;;;;;;;29.87;15.53;;;;;;;7.34;100.00;98077.70;4273757;82;28463;-83
2021/11/03 01:15:24;;;;;;;28.05;15.15;;;;;;;7.31;100.00;98084.86;4277712;82;28483;-83
2021/11/03 01:21:27;;;;;;;30.72;16.70;;;;;;;7.35;100.00;98091.90;4283557;82;28579;-84
2021/11/03 01:27:30;;;;;;;30.45;16.80;;;;;;;7.47;100.00;98086.52;4286070;81;28465;-83
2021/11/03 01:33:31;;;;;;;29.15;16.07;;;;;;;7.43;100.00;98085.38;4288859;81;28488;-83
2021/11/03 01:39:33;;;;;;;28.40;16.00;;;;;;;7.11;100.00;98090.54;4290428;81;28517;-85
2021/11/03 01:45:36;;;;;;;29.98;15.08;;;;;;;7.04;100.00;98071.16;4311863;81;28541;-83
2021/11/03 01:51:51;;;;;;;25.10;14.38;;;;;;;6.90;100.00;98074.02;4319441;81;28494;-82
2021/11/03 01:57:58;;;;;;;27.13;15.40;;;;;;;6.81;100.00;98089.59;4254754;82;28499;-82
2021/11/03 02:04:01;;;;;;;29.70;16.10;;;;;;;6.46;100.00;98095.67;4322747;81;28524;-82
2021/11/03 02:10:04;;;;;;;25.88;14.38;;;;;;;6.25;100.00;98097.80;4346638;81;28522;-84
2021/11/03 02:16:10;;;;;;;26.25;14.75;;;;;;;6.10;100.00;98092.03;4299236;81;28491;-85
2021/11/03 02:22:38;;;;;;;27.13;14.53;;;;;;;6.00;100.00;98089.88;4303689;81;28496;-85
2021/11/03 02:28:43;;;;;;;28.98;15.48;;;;;;;6.03;100.00;98095.30;4323426;81;28539;-84
2021/11/03 02:34:46;;;;;;;24.47;14.23;;;;;;;5.89;100.00;98099.44;4324629;81;28453;-83
2021/11/03 02:40:54;;;;;;;21.35;12.05;;;;;;;5.83;100.00;98108.33;4286362;82;28478;-85
2021/11/03 02:46:55;;;;;;;21.70;10.82;;;;;;;5.68;100.00;98102.86;4322129;81;28521;-82
2021/11/03 02:52:57;;;;;;;18.73;10.93;;;;;;;5.81;100.00;98097.07;4308496;81;28511;-82
2021/11/03 02:58:59;;;;;;;20.92;11.08;;;;;;;5.83;100.00;98098.48;4288260;81;28505;-81
2021/11/03 03:05:00;;;;;;;18.32;11.18;;;;;;;5.72;100.00;98096.56;4327663;81;28644;-83
2021/11/03 03:11:04;;;;;;;19.40;10.58;;;;;;;5.63;100.00;98088.06;4305141;81;28471;-84
2021/11/03 03:17:10;;;;;;;16.95;9.25;;;;;;;5.60;100.00;98090.35;4312662;82;28484;-85
2021/11/03 03:23:12;;;;;;;15.65;9.50;;;;;;;5.51;100.00;98095.14;4304557;81;28493;-84
2021/11/03 03:29:14;;;;;;;17.87;9.98;;;;;;;5.37;100.00;98090.48;4311038;82;28443;-84
2021/11/03 03:35:17;;;;;;;15.48;9.40;;;;;;;5.23;100.00;98107.12;4341342;81;28484;-83
2021/11/03 03:41:23;;;;;;;14.53;8.58;;;;;;;5.16;100.00;98108.52;4320120;81;28449;-82
2021/11/03 03:47:24;;;;;;;13.15;7.60;;;;;;;5.04;100.00;98116.39;4310791;81;28482;-82
2021/11/03 03:53:28;;;;;;;12.10;6.97;;;;;;;4.93;100.00;98123.23;4307871;81;28492;-82
2021/11/03 03:59:29;;;;;;;12.47;6.47;;;;;;;4.85;100.00;98120.33;4335600;81;28493;-81
2021/11/03 04:05:33;;;;;;;12.47;7.33;;;;;;;4.91;100.00;98127.97;4317218;82;28531;-82
2021/11/03 04:11:36;;;;;;;11.97;7.15;;;;;;;4.99;100.00;98134.36;4304437;81;28551;-83
2021/11/03 04:17:38;;;;;;;10.05;6.20;;;;;;;5.08;100.00;98143.42;4299355;81;28487;-82
2021/11/03 04:23:40;;;;;;;11.65;6.37;;;;;;;5.04;100.00;98153.70;4285192;81;28535;-82
2021/11/03 04:29:42;;;;;;;9.28;5.70;;;;;;;4.85;100.00;98155.48;4239052;83;28478;-83
2021/11/03 04:35:47;;;;;;;12.65;6.70;;;;;;;4.75;100.00;98163.93;4268507;83;28471;-82
2021/11/03 04:41:49;;;;;;;11.48;6.75;;;;;;;4.56;100.00;98166.48;4238551;83;28457;-83
2021/11/03 04:47:51;;;;;;;9.45;5.80;;;;;;;4.42;100.00;98180.37;4222170;83;28462;-83
2021/11/03 04:53:53;;;;;;;9.60;5.60;;;;;;;4.26;100.00;98176.89;4264854;83;28484;-82
2021/11/03 04:59:57;;;;;;;8.55;5.25;;;;;;;4.09;100.00;98173.89;4245607;83;28468;-80
2021/11/03 05:06:01;;;;;;;8.40;5.10;;;;;;;4.07;100.00;98175.95;4230511;83;28469;-82
2021/11/03 05:12:05;;;;;;;9.38;5.10;;;;;;;3.96;100.00;98176.06;4255164;83;28553;-81
2021/11/03 05:18:08;;;;;;;7.70;5.22;;;;;;;3.98;100.00;98179.33;4236203;83;28491;-80
2021/11/03 05:24:10;;;;;;;7.90;4.72;;;;;;;3.79;100.00;98184.48;4238590;83;28463;-82
2021/11/03 05:30:12;;;;;;;6.53;3.85;;;;;;;3.75;100.00;98187.27;4282888;82;28455;-82
2021/11/03 05:36:19;;;;;;;6.30;4.10;;;;;;;3.58;100.00;98190.34;4191140;85;28514;-81
2021/11/03 05:42:21;;;;;;;7.00;4.80;;;;;;;3.71;100.00;98172.23;4257795;84;28465;-82
2021/11/03 05:48:29;;;;;;;7.47;4.58;;;;;;;3.67;100.00;98172.86;4307695;83;28495;-81
2021/11/03 05:54:33;;;;;;;6.62;4.10;;;;;;;3.55;100.00;98183.33;4251602;82;28542;-82
2021/11/03 06:00:38;;;;;;;4.65;2.87;;;;;;;3.73;100.00;98181.34;4186733;84;28472;-82
2021/11/03 06:06:39;;;;;;;4.85;3.12;;;;;;;4.09;100.00;98182.67;4284482;82;28446;-81
2021/11/03 06:12:40;;;;;;;4.03;2.75;;;;;;;4.46;100.00;98196.75;4223018;84;28499;-82
2021/11/03 06:18:42;;;;;;;4.08;2.67;;;;;;;4.57;100.00;98208.05;4308181;83;28462;-83
2021/11/03 06:24:46;;;;;;;4.55;2.92;;;;;;;4.74;100.00;98216.39;4289794;83;28482;-82
2021/11/03 06:30:48;;;;;;;6.10;3.70;;;;;;;4.84;100.00;98231.89;4259853;84;28459;-83
2021/11/03 06:36:49;;;;;;;7.22;3.80;;;;;;;4.97;100.00;98241.66;4314672;82;28459;-80
2021/11/03 06:42:53;;;;;;;10.88;5.22;;;;;;;5.29;100.00;98256.81;4319981;81;28548;-84
2021/11/03 06:48:54;;;;;;;7.72;4.50;;;;;;;5.27;100.00;98265.55;4314219;81;28607;-80
2021/11/03 06:54:55;;;;;;;8.78;5.00;;;;;;;5.50;100.00;98271.65;4298783;82;28446;-84
2021/11/03 07:00:58;;;;;;;6.55;3.87;;;;;;;5.54;100.00;98267.50;4225858;84;28535;-84
2021/11/03 07:06:59;;;;;;;5.90;3.55;;;;;;;5.71;100.00;98273.64;4329850;82;28447;-85
2021/11/03 07:13:01;;;;;;;4.70;3.10;;;;;;;5.98;100.00;98278.72;4298607;82;28468;-83
2021/11/03 07:19:03;;;;;;;6.55;3.33;;;;;;;6.15;100.00;98280.36;4268579;82;28433;-79
2021/11/03 07:25:06;;;;;;;7.20;3.70;;;;;;;6.37;100.00;98283.93;4289372;82;28561;-82
2021/11/03 07:31:08;;;;;;;5.22;3.22;;;;;;;6.62;100.00;98283.84;4186706;85;28587;-82
2021/11/03 07:37:09;;;;;;;6.05;3.33;;;;;;;6.69;100.00;98305.14;4262843;82;28508;-82
2021/11/03 07:43:15;;;;;;;6.12;3.58;;;;;;;6.81;100.00;98304.67;4293498;83;28454;-83
2021/11/03 07:49:18;;;;;;;7.60;3.25;;;;;;;6.96;100.00;98311.47;4248100;82;28514;-81
2021/11/03 07:55:20;;;;;;;5.28;2.90;;;;;;;7.18;100.00;98313.65;4282225;81;28443;-83
2021/11/03 08:01:22;;;;;;;4.50;2.55;;;;;;;7.32;100.00;98324.47;4277888;81;28465;-81
2021/11/03 08:07:23;;;;;;;6.58;3.45;;;;;;;7.52;100.00;98316.15;4237766;84;28512;-82
2021/11/03 08:13:28;;;;;;;3.62;2.60;;;;;;;7.74;100.00;98314.81;4232537;83;28532;-87
2021/11/03 08:19:39;;;;;;;5.33;3.08;;;;;;;7.93;100.00;98323.04;4294216;83;28471;-80
2021/11/03 08:25:42;;;;;;;5.58;2.30;;;;;;;7.98;100.00;98326.88;4257858;83;28521;-84
2021/11/03 08:31:46;;;;;;;4.87;2.25;;;;;;;8.20;100.00;98333.82;4273945;82;28670;-80
2021/11/03 08:37:50;;;;;;;5.17;2.37;;;;;;;8.42;100.00;98338.05;4280609;82;28474;-82
2021/11/03 08:43:51;;;;;;;4.17;2.20;;;;;;;8.62;100.00;98333.70;4273079;83;28454;-83
2021/11/03 08:49:54;;;;;;;3.77;1.87;;;;;;;8.77;100.00;98326.51;4180378;84;28478;-82
2021/11/03 08:55:55;;;;;;;3.42;1.67;;;;;;;8.98;100.00;98332.28;4171454;84;28502;-80
2021/11/03 09:01:57;;;;;;;2.87;1.37;;;;;;;9.11;100.00;98324.48;4159902;84;28508;-79
2021/11/03 09:08:00;;;;;;;2.92;1.47;;;;;;;9.22;100.00;98319.31;4218286;82;28506;-79
2021/11/03 09:14:03;;;;;;;3.62;1.37;;;;;;;9.31;100.00;98324.05;4172134;84;28560;-78
2021/11/03 09:20:08;;;;;;;1.92;1.05;;;;;;;9.39;100.00;98325.52;4273040;83;28499;-81
2021/11/03 09:26:10;;;;;;;1.85;1.17;;;;;;;9.48;100.00;98317.91;4294726;81;28532;-79
2021/11/03 09:32:16;;;;;;;2.35;1.15;;;;;;;9.72;100.00;98325.81;4250423;82;28551;-80
2021/11/03 09:38:24;;;;;;;3.75;1.30;;;;;;;9.80;100.00;98326.77;4309207;81;28473;-78
2021/11/03 09:44:30;;;;;;;2.45;1.20;;;;;;;9.82;100.00;98318.45;4310312;81;28538;-78
2021/11/03 09:50:36;;;;;;;1.80;1.15;;;;;;;9.83;100.00;98309.33;4292415;81;28478;-78
2021/11/03 09:56:43;;;;;;;1.75;0.90;;;;;;;9.98;100.00;98311.45;4322756;81;28462;-80
2021/11/03 10:03:22;;;;;;;1.50;0.90;;;;;;;10.12;100.00;98312.75;4299612;81;28504;-79
2021/11/03 10:09:23;;;;;;;2.60;0.93;;;;;;;10.32;100.00;98301.47;4258013;82;28512;-78
2021/11/03 10:15:26;;;;;;;1.90;1.10;;;;;;;10.46;100.00;98306.00;4267025;82;28549;-78
2021/11/03 10:21:35;;;;;;;3.17;1.05;;;;;;;10.60;100.00;98316.37;4241336;82;28562;-79
2021/11/03 10:28:00;;;;;;;1.22;0.88;;;;;;;10.70;100.00;98313.02;4247442;82;28520;-79
2021/11/03 10:34:22;;;;;;;2.27;0.80;;;;;;;10.73;100.00;98307.14;4226953;82;28523;-81
2021/11/03 10:40:55;;;;;;;1.30;0.85;;;;;;;10.77;100.00;98292.66;4259347;82;28564;-80
2021/11/03 10:47:11;;;;;;;1.67;0.90;;;;;;;10.90;100.00;98284.20;4227164;82;28480;-78
2021/11/03 10:53:38;;;;;;;1.75;0.95;;;;;;;11.12;100.00;98282.84;4318880;81;28501;-78
2021/11/03 10:59:48;;;;;;;1.42;1.00;;;;;;;11.26;100.00;98281.08;4270661;81;28535;-81
2021/11/03 11:06:07;;;;;;;1.87;0.90;;;;;;;11.29;100.00;98264.42;4298845;81;28467;-79
2021/11/03 11:12:35;;;;;;;1.10;0.70;;;;;;;11.34;100.00;98261.80;4239639;82;28474;-81
2021/11/03 11:18:55;;;;;;;2.55;0.90;;;;;;;11.41;100.00;98273.69;4302454;81;28527;-80
2021/11/03 11:25:15;;;;;;;3.45;1.50;;;;;;;11.46;100.00;98253.56;4304044;81;28469;-82
2021/11/03 11:31:37;;;;;;;1.72;0.80;;;;;;;11.56;100.00;98243.40;4185513;83;28516;-81
2021/11/03 11:38:12;;;;;;;1.75;0.68;;;;;;;11.56;100.00;98252.82;4245699;82;28476;-82
2021/11/03 11:44:22;;;;;;;4.13;0.73;;;;;;;11.64;100.00;98228.13;4170366;84;28499;-80
2021/11/03 11:50:53;;;;;;;1.90;0.88;;;;;;;11.78;100.00;98230.36;4304796;81;28553;-80
2021/11/03 11:57:13;;;;;;;2.62;0.98;;;;;;;11.91;94.02;98225.06;4296852;81;28463;-82
2021/11/03 12:03:20;;;;;;;2.12;0.80;;;;;;;11.96;96.98;98225.91;4286131;81;28477;-81
2021/11/03 12:09:39;;;;;;;1.72;0.90;;;;;;;11.94;91.44;98222.67;4301958;81;28556;-83
2021/11/03 12:15:55;;;;;;;3.42;0.80;;;;;;;12.03;99.00;98221.66;4319483;81;28500;-78
2021/11/03 12:22:01;;;;;;;1.50;0.90;;;;;;;12.19;96.69;98229.30;4321666;81;28454;-80
2021/11/03 12:28:19;;;;;;;1.30;0.70;;;;;;;12.21;92.57;98228.48;4313793;81;28568;-78
2021/11/03 12:34:35;;;;;;;1.95;0.78;;;;;;;12.35;91.69;98222.09;4314426;81;28504;-78
2021/11/03 12:40:41;;;;;;;1.32;0.70;;;;;;;12.57;89.87;98219.75;4321665;81;28493;-77
2021/11/03 12:46:45;;;;;;;2.30;0.60;;;;;;;12.77;87.26;98217.67;4289460;81;28454;-80
2021/11/03 12:53:06;;;;;;;1.62;0.75;;;;;;;12.89;86.22;98224.16;4318790;81;28455;-78
2021/11/03 12:59:21;;;;;;;4.65;0.68;;;;;;;12.98;85.17;98229.86;4330591;81;28471;-77
2021/11/03 13:05:36;;;;;;;1.35;0.68;;;;;;;12.91;85.38;98230.12;4314996;81;28450;-76
2021/11/03 13:11:38;;;;;;;1.13;0.63;;;;;;;12.75;86.32;98231.94;4313616;81;28468;-78
2021/11/03 13:17:53;;;;;;;1.20;0.50;;;;;;;12.73;85.00;98252.18;4301720;81;28464;-76
2021/11/03 13:24:00;;;;;;;1.30;0.80;;;;;;;12.71;82.19;98243.55;4315306;81;28466;-78
2021/11/03 13:30:07;;;;;;;0.90;0.57;;;;;;;12.81;83.42;98237.62;4270609;82;28510;-79
2021/11/03 13:36:23;;;;;;;1.20;0.70;;;;;;;12.75;84.21;98228.45;4264558;83;28462;-81
2021/11/03 13:42:48;;;;;;;3.80;0.80;;;;;;;12.72;83.44;98239.22;4177524;84;28504;-77
2021/11/03 13:48:56;;;;;;;4.63;0.70;;;;;;;12.64;84.16;98226.24;4170161;85;33517;-79
2021/11/03 13:55:00;;;;;;;3.95;1.35;;;;;;;12.62;82.95;98210.87;4261468;82;28469;-82
2021/11/03 14:01:13;;;;;;;1.90;1.02;;;;;;;12.58;86.94;98217.87;4149686;84;28545;-83
2021/11/03 14:07:25;;;;;;;2.25;1.32;;;;;;;12.50;87.17;98217.30;4256227;82;28480;-82
2021/11/03 14:13:26;;;;;;;3.62;1.20;;;;;;;12.33;86.08;98216.69;4157181;84;28456;-81
2021/11/03 14:19:49;;;;;;;3.15;1.37;;;;;;;12.15;88.49;98228.20;4260949;82;28502;-82
2021/11/03 14:25:52;;;;;;;2.55;1.15;;;;;;;12.02;88.79;98230.82;4254637;82;28459;-82
2021/11/03 14:31:54;;;;;;;4.05;1.45;;;;;;;11.84;91.51;98225.30;4265220;82;28518;-84
2021/11/03 14:38:01;;;;;;;3.15;1.27;;;;;;;11.70;92.19;98220.89;4251792;82;28574;-84
2021/11/03 14:44:03;;;;;;;2.55;1.60;;;;;;;11.49;94.69;98220.74;4259194;82;28506;-83
2021/11/03 14:50:28;;;;;;;4.72;1.67;;;;;;;11.37;97.00;98235.70;4214583;82;28513;-83
2021/11/03 14:56:29;;;;;;;4.75;1.85;;;;;;;11.20;99.35;98237.72;4268121;82;28491;-84
2021/11/03 15:02:39;;;;;;;4.22;2.20;;;;;;;11.01;100.00;98215.22;4268190;82;28476;-83
2021/11/03 15:08:42;;;;;;;5.78;2.30;;;;;;;10.82;100.00;98203.45;4255717;81;28509;-81
2021/11/03 15:14:44;;;;;;;6.37;2.00;;;;;;;10.63;100.00;98200.83;4275011;82;28459;-80
2021/11/03 15:20:53;;;;;;;6.00;2.10;;;;;;;10.54;100.00;98187.83;4241976;82;28453;-83
2021/11/03 15:26:55;;;;;;;5.65;2.30;;;;;;;10.47;100.00;98187.23;4279315;81;28508;-81
2021/11/03 15:32:56;;;;;;;5.15;2.35;;;;;;;10.38;100.00;98193.53;4316630;81;28479;-84
2021/11/03 15:39:02;;;;;;;4.35;2.17;;;;;;;10.36;100.00;98195.66;4316320;81;28482;-81
2021/11/03 15:45:06;;;;;;;4.80;2.87;;;;;;;10.37;100.00;98197.28;4310889;81;28447;-87
2021/11/03 15:51:10;;;;;;;4.20;2.08;;;;;;;10.43;100.00;98209.76;4351791;81;28508;-85
2021/11/03 15:57:11;;;;;;;8.68;3.02;;;;;;;10.48;100.00;98206.33;4311937;81;28521;-84
2021/11/03 16:03:34;;;;;;;10.85;2.67;;;;;;;10.48;100.00;98197.44;4205386;83;28477;-83
2021/11/03 16:09:35;;;;;;;8.00;3.17;;;;;;;10.60;100.00;98215.06;4183512;83;28490;-80
2021/11/03 16:15:39;;;;;;;9.58;3.87;;;;;;;10.67;100.00;98217.55;4315933;81;28587;-83
2021/11/03 16:21:43;;;;;;;6.75;3.60;;;;;;;10.64;100.00;98208.66;4303904;82;28465;-85
2021/11/03 16:27:47;;;;;;;6.15;3.60;;;;;;;10.55;100.00;98201.55;4304889;81;28564;-83
2021/11/03 16:33:49;;;;;;;9.53;3.90;;;;;;;10.56;100.00;98213.92;4302056;81;28487;-82
2021/11/03 16:39:51;;;;;;;8.23;4.10;;;;;;;10.48;100.00;98209.01;4307556;81;28522;-85
2021/11/03 16:45:54;;;;;;;9.90;4.87;;;;;;;10.50;100.00;98222.17;4296915;82;28512;-85
2021/11/03 16:51:56;;;;;;;11.57;4.85;;;;;;;10.48;100.00;98219.77;4314962;81;28459;-86
2021/11/03 16:57:57;;;;;;;13.85;5.22;;;;;;;10.48;100.00;98228.34;4288421;81;28441;-83
2021/11/03 17:04:03;;;;;;;11.22;5.10;;;;;;;10.49;100.00;98228.09;4311386;81;28556;-85
2021/11/03 17:10:07;;;;;;;11.45;4.80;;;;;;;10.48;100.00;98235.88;4302177;81;28447;-87
2021/11/03 17:16:08;;;;;;;9.40;5.08;;;;;;;10.49;100.00;98221.38;4315426;81;28510;-89
2021/11/03 17:22:12;;;;;;;11.18;5.28;;;;;;;10.40;100.00;98233.05;4314195;81;28438;-85
2021/11/03 17:28:28;;;;;;;10.70;5.30;;;;;;;10.37;100.00;98222.81;4303575;82;28456;-85
2021/11/03 17:34:29;;;;;;;12.07;5.63;;;;;;;10.30;100.00;98239.13;4265239;83;28476;-86
2021/11/03 17:40:33;;;;;;;11.83;5.97;;;;;;;10.23;100.00;98231.77;4241545;83;28533;-84
2021/11/03 17:46:34;;;;;;;10.72;5.45;;;;;;;10.16;100.00;98237.87;4223649;83;28488;-83
2021/11/03 17:52:40;;;;;;;12.95;5.70;;;;;;;9.98;100.00;98230.37;4263506;83;28496;-85
2021/11/03 17:58:42;;;;;;;10.53;4.90;;;;;;;9.81;100.00;98225.03;4244915;83;28489;-87
2021/11/03 18:04:45;;;;;;;10.85;4.65;;;;;;;9.57;100.00;98224.39;4232817;83;28523;-83
2021/11/03 18:10:46;;;;;;;10.10;4.65;;;;;;;9.44;100.00;98233.57;4279452;83;28530;-83
2021/11/03 18:16:51;;;;;;;11.43;4.95;;;;;;;9.37;100.00;98232.39;4280035;83;28575;-85
2021/11/03 18:22:54;;;;;;;9.45;4.58;;;;;;;9.33;100.00;98231.27;4231354;83;28525;-85
2021/11/03 18:29:01;;;;;;;8.38;4.70;;;;;;;9.31;100.00;98226.13;4265194;81;28471;-85
2021/11/03 18:35:04;;;;;;;7.80;4.10;;;;;;;9.27;100.00;98218.81;4285036;81;28545;-83
2021/11/03 18:41:21;;;;;;;10.18;4.35;;;;;;;9.14;100.00;98223.95;4323339;82;28467;-80
2021/11/03 18:47:26;;;;;;;9.00;4.20;;;;;;;9.06;100.00;98219.80;4309509;81;28473;-82
2021/11/03 18:53:32;;;;;;;8.70;3.65;;;;;;;8.95;100.00;98220.67;4297400;82;28516;-81
2021/11/03 18:59:35;;;;;;;7.70;3.80;;;;;;;8.96;100.00;98229.83;4292258;82;28527;-83
2021/11/03 19:05:42;;;;;;;5.83;3.05;;;;;;;8.93;100.00;98227.61;4312095;81;28553;-82
2021/11/03 19:11:45;;;;;;;6.28;3.40;;;;;;;8.93;100.00;98217.71;4311954;82;28498;-86
2021/11/03 19:17:47;;;;;;;6.90;3.27;;;;;;;8.91;100.00;98216.31;4261454;82;28483;-84
2021/11/03 19:23:52;;;;;;;6.92;3.72;;;;;;;8.98;100.00;98215.65;4309661;82;28481;-86
2021/11/03 19:30:01;;;;;;;7.62;3.80;;;;;;;8.91;100.00;98214.46;4250197;82;28577;-84
2021/11/03 19:36:12;;;;;;;7.08;3.20;;;;;;;8.87;100.00;98228.58;4277758;83;28520;-79
2021/11/03 19:42:15;;;;;;;5.75;3.15;;;;;;;8.91;100.00;98225.70;4199407;83;28590;-83
2021/11/03 19:48:17;;;;;;;7.65;3.70;;;;;;;8.93;100.00;98238.33;4130300;85;28533;-85
2021/11/03 19:54:35;;;;;;;5.72;3.02;;;;;;;8.96;100.00;98232.51;4264186;83;28507;-82
2021/11/03 20:00:38;;;;;;;6.15;2.98;;;;;;;8.93;100.00;98256.58;4243823;83;28565;-83
2021/11/03 20:06:43;;;;;;;5.95;3.35;;;;;;;8.92;100.00;98248.77;4227223;82;28505;-85
2021/11/03 20:12:46;;;;;;;6.60;3.50;;;;;;;8.97;100.00;98233.30;4260383;83;28455;-86
2021/11/03 20:18:54;;;;;;;7.35;3.83;;;;;;;8.95;100.00;98232.73;4246898;83;28505;-85
2021/11/03 20:25:00;;;;;;;8.05;4.12;;;;;;;8.94;100.00;98234.59;4174509;84;28542;-82
2021/11/03 20:31:05;;;;;;;7.10;4.27;;;;;;;8.96;100.00;98212.91;4302078;81;28522;-82
2021/11/03 20:37:10;;;;;;;8.25;4.37;;;;;;;9.06;100.00;98209.08;4310511;81;28453;-83
2021/11/03 20:43:11;;;;;;;8.60;4.55;;;;;;;9.09;100.00;98202.42;4301393;81;29105;-83
2021/11/03 20:49:13;;;;;;;8.73;4.55;;;;;;;9.04;100.00;98202.60;4297317;82;28449;-81
2021/11/03 20:55:17;;;;;;;8.53;4.58;;;;;;;9.03;100.00;98206.88;4312909;81;28543;-84
2021/11/03 21:01:19;;;;;;;7.60;4.22;;;;;;;9.01;100.00;98213.82;4308569;81;28521;-84
2021/11/03 21:07:23;;;;;;;10.00;4.50;;;;;;;9.12;100.00;98215.34;4309752;82;28466;-83
2021/11/03 21:13:27;;;;;;;9.35;4.87;;;;;;;9.09;100.00;98221.19;4306916;81;28470;-82
2021/11/03 21:19:29;;;;;;;8.50;5.00;;;;;;;9.08;100.00;98211.52;4280372;81;28499;-84
2021/11/03 21:25:30;;;;;;;10.05;5.28;;;;;;;9.16;100.00;98203.06;4301015;81;28510;-86
2021/11/03 21:31:33;;;;;;;10.48;5.12;;;;;;;9.11;100.00;98207.01;4298916;82;28598;-85
2021/11/03 21:37:35;;;;;;;12.60;5.05;;;;;;;8.98;100.00;98216.98;4301940;81;28469;-83
2021/11/03 21:43:36;;;;;;;8.88;4.95;;;;;;;9.11;100.00;98223.10;4291793;81;28441;-85
2021/11/03 21:49:45;;;;;;;11.97;6.15;;;;;;;9.02;100.00;98226.71;4308936;81;28458;-83
2021/11/03 21:55:47;;;;;;;11.80;7.22;;;;;;;8.86;100.00;98226.95;4300532;81;28539;-83
2021/11/03 22:01:48;;;;;;;11.22;6.45;;;;;;;8.84;100.00;98243.27;4295283;81;28503;-84
2021/11/03 22:07:50;;;;;;;10.93;6.55;;;;;;;8.75;100.00;98233.47;4283298;81;28562;-84
2021/11/03 22:13:55;;;;;;;15.13;7.05;;;;;;;8.81;100.00;98238.40;4188975;83;28473;-85
2021/11/03 22:19:55;;;;;;;11.80;6.45;;;;;;;8.86;100.00;98235.80;4257303;82;28485;-84
2021/11/03 22:25:59;;;;;;;10.93;5.62;;;;;;;8.92;100.00;98236.70;4188289;83;28507;-83
2021/11/03 22:32:00;;;;;;;10.63;5.75;;;;;;;8.89;100.00;98236.65;4276947;81;28569;-87
2021/11/03 22:38:01;;;;;;;11.22;6.25;;;;;;;8.87;100.00;98237.97;4271033;81;28511;-86
2021/11/03 22:44:03;;;;;;;12.10;6.30;;;;;;;9.02;100.00;98230.73;4310332;82;28467;-83
2021/11/03 22:50:06;;;;;;;10.70;6.47;;;;;;;8.98;100.00;98220.19;4288288;82;28445;-82
2021/11/03 22:56:08;;;;;;;12.68;7.83;;;;;;;8.68;100.00;98219.39;4296284;82;28458;-83
2021/11/03 23:02:10;;;;;;;10.70;6.05;;;;;;;8.73;100.00;98224.03;4300487;81;28441;-85
2021/11/03 23:08:13;;;;;;;11.22;6.53;;;;;;;8.85;100.00;98224.80;4304379;81;28479;-80
2021/11/03 23:14:14;;;;;;;14.98;7.20;;;;;;;8.57;100.00;98227.73;4305753;82;28513;-83
2021/11/03 23:20:16;;;;;;;12.28;7.10;;;;;;;8.62;100.00;98223.01;4310737;81;28458;-83
2021/11/03 23:26:17;;;;;;;12.20;7.53;;;;;;;8.79;100.00;98209.66;4296720;81;28476;-83
2021/11/03 23:32:19;;;;;;;11.70;6.95;;;;;;;8.69;100.00;98181.33;4313784;81;28478;-84
2021/11/03 23:38:20;;;;;;;12.37;6.78;;;;;;;8.63;100.00;98179.91;4303099;81;28435;-82
2021/11/03 23:44:22;;;;;;;13.90;7.17;;;;;;;8.59;100.00;98168.56;4312133;81;28478;-82
2021/11/03 23:50:28;;;;;;;15.10;8.43;;;;;;;8.56;100.00;98171.73;4318455;81;28516;-85
2021/11/03 23:56:29;;;;;;;17.32;9.13;;;;;;;8.54;100.00;98152.38;4319358;81;28486;-83
